sensor_id;sensor_type;location;lat;lon;timestamp;pressure;altitude;pressure_sealevel;temperature;humidity
12213;BME280;6169;44.158;22.788;2022-10-31T00:00:16;101478.63;;;17.03;46.01
12213;BME280;6169;44.158;22.788;2022-10-31T00:05:18;101468.41;;;16.76;46.51
12213;BME280;6169;44.158;22.788;2022-10-31T00:10:21;101454.00;;;16.64;47.14
12213;BME280;6169;44.158;22.788;2022-10-31T00:15:24;101434.22;;;16.45;47.69
12213;BME280;6169;44.158;22.788;2022-10-31T00:20:27;101430.25;;;16.36;47.46
12213;BME280;6169;44.158;22.788;2022-10-31T00:25:33;101426.75;;;16.41;47.02
12213;BME280;6169;44.158;22.788;2022-10-31T00:30:38;101460.56;;;16.85;46.25
12213;BME280;6169;44.158;22.788;2022-10-31T00:35:40;101483.59;;;17.06;45.79
12213;BME280;6169;44.158;22.788;2022-10-31T00:40:42;101477.63;;;17.09;45.43
12213;BME280;6169;44.158;22.788;2022-10-31T00:45:46;101468.75;;;17.02;45.52
12213;BME280;6169;44.158;22.788;2022-10-31T00:50:49;101457.63;;;16.70;46.44
12213;BME280;6169;44.158;22.788;2022-10-31T00:55:52;101474.59;;;16.89;45.95
12213;BME280;6169;44.158;22.788;2022-10-31T01:00:56;101465.31;;;16.90;46.05
12213;BME280;6169;44.158;22.788;2022-10-31T01:05:59;101470.34;;;16.98;45.82
12213;BME280;6169;44.158;22.788;2022-10-31T01:11:05;101468.03;;;16.90;46.15
12213;BME280;6169;44.158;22.788;2022-10-31T01:16:11;101456.63;;;16.76;46.04
12213;BME280;6169;44.158;22.788;2022-10-31T01:21:15;101459.38;;;16.98;45.55
12213;BME280;6169;44.158;22.788;2022-10-31T01:26:20;101463.06;;;16.87;45.71
12213;BME280;6169;44.158;22.788;2022-10-31T01:31:27;101453.41;;;16.62;45.77
12213;BME280;6169;44.158;22.788;2022-10-31T01:36:31;101460.59;;;16.68;46.24
12213;BME280;6169;44.158;22.788;2022-10-31T01:41:35;101456.94;;;16.79;45.75
12213;BME280;6169;44.158;22.788;2022-10-31T01:46:41;101458.50;;;16.53;46.09
12213;BME280;6169;44.158;22.788;2022-10-31T01:51:48;101459.28;;;16.71;45.81
12213;BME280;6169;44.158;22.788;2022-10-31T01:56:55;101458.91;;;16.84;45.47
12213;BME280;6169;44.158;22.788;2022-10-31T02:02:00;101460.09;;;16.71;46.02
12213;BME280;6169;44.158;22.788;2022-10-31T02:07:07;101454.00;;;16.47;46.20
12213;BME280;6169;44.158;22.788;2022-10-31T02:12:12;101466.94;;;16.18;47.49
12213;BME280;6169;44.158;22.788;2022-10-31T02:17:17;101470.72;;;16.85;45.53
12213;BME280;6169;44.158;22.788;2022-10-31T02:22:26;101446.44;;;16.21;46.09
12213;BME280;6169;44.158;22.788;2022-10-31T02:27:45;101477.25;;;16.28;46.89
12213;BME280;6169;44.158;22.788;2022-10-31T02:33:02;101486.94;;;16.52;45.82
12213;BME280;6169;44.158;22.788;2022-10-31T02:38:16;101472.59;;;16.62;45.57
12213;BME280;6169;44.158;22.788;2022-10-31T02:43:27;101477.25;;;16.28;46.87
12213;BME280;6169;44.158;22.788;2022-10-31T02:48:34;101457.50;;;16.09;46.48
12213;BME280;6169;44.158;22.788;2022-10-31T02:53:39;101484.00;;;15.75;47.77
12213;BME280;6169;44.158;22.788;2022-10-31T02:58:44;101487.22;;;15.43;48.95
12213;BME280;6169;44.158;22.788;2022-10-31T03:04:01;101497.97;;;15.61;48.16
12213;BME280;6169;44.158;22.788;2022-10-31T03:09:12;101496.13;;;15.79;47.94
12213;BME280;6169;44.158;22.788;2022-10-31T03:14:19;101500.78;;;15.78;47.52
12213;BME280;6169;44.158;22.788;2022-10-31T03:19:27;101504.09;;;15.40;48.98
12213;BME280;6169;44.158;22.788;2022-10-31T03:24:37;101503.97;;;15.46;48.94
12213;BME280;6169;44.158;22.788;2022-10-31T03:29:42;101502.78;;;15.42;49.38
12213;BME280;6169;44.158;22.788;2022-10-31T03:34:49;101501.13;;;15.41;49.48
12213;BME280;6169;44.158;22.788;2022-10-31T03:39:52;101502.75;;;15.54;48.71
12213;BME280;6169;44.158;22.788;2022-10-31T03:44:59;101501.69;;;15.55;49.08
12213;BME280;6169;44.158;22.788;2022-10-31T03:50:07;101500.16;;;15.47;49.93
12213;BME280;6169;44.158;22.788;2022-10-31T03:55:15;101503.81;;;15.53;49.74
12213;BME280;6169;44.158;22.788;2022-10-31T04:00:19;101501.72;;;15.43;49.80
12213;BME280;6169;44.158;22.788;2022-10-31T04:05:24;101489.16;;;15.31;49.25
12213;BME280;6169;44.158;22.788;2022-10-31T04:10:27;101502.94;;;15.36;49.17
12213;BME280;6169;44.158;22.788;2022-10-31T04:15:31;101469.22;;;15.47;47.91
12213;BME280;6169;44.158;22.788;2022-10-31T04:20:37;101502.59;;;15.32;49.17
12213;BME280;6169;44.158;22.788;2022-10-31T04:25:40;101506.44;;;15.19;48.86
12213;BME280;6169;44.158;22.788;2022-10-31T04:30:42;101513.44;;;15.27;48.97
12213;BME280;6169;44.158;22.788;2022-10-31T04:35:47;101493.78;;;14.90;50.53
12213;BME280;6169;44.158;22.788;2022-10-31T04:40:50;101513.53;;;15.32;49.81
12213;BME280;6169;44.158;22.788;2022-10-31T04:45:53;101508.78;;;15.27;49.31
12213;BME280;6169;44.158;22.788;2022-10-31T04:51:00;101510.81;;;15.32;49.15
12213;BME280;6169;44.158;22.788;2022-10-31T04:56:03;101508.84;;;15.44;49.42
12213;BME280;6169;44.158;22.788;2022-10-31T05:01:06;101508.75;;;15.39;49.82
12213;BME280;6169;44.158;22.788;2022-10-31T05:06:10;101514.88;;;15.58;49.47
12213;BME280;6169;44.158;22.788;2022-10-31T05:11:12;101516.94;;;15.39;49.08
12213;BME280;6169;44.158;22.788;2022-10-31T05:16:15;101526.16;;;15.62;49.12
12213;BME280;6169;44.158;22.788;2022-10-31T05:21:19;101521.16;;;15.59;48.15
12213;BME280;6169;44.158;22.788;2022-10-31T05:26:21;101519.91;;;15.49;49.09
12213;BME280;6169;44.158;22.788;2022-10-31T05:31:23;101532.59;;;15.67;48.90
12213;BME280;6169;44.158;22.788;2022-10-31T05:36:27;101540.84;;;15.84;48.84
12213;BME280;6169;44.158;22.788;2022-10-31T05:41:30;101549.44;;;16.05;48.64
12213;BME280;6169;44.158;22.788;2022-10-31T05:46:32;101548.06;;;15.90;49.58
12213;BME280;6169;44.158;22.788;2022-10-31T05:51:36;101555.94;;;16.49;47.72
12213;BME280;6169;44.158;22.788;2022-10-31T05:56:39;101560.22;;;16.57;47.74
12213;BME280;6169;44.158;22.788;2022-10-31T06:01:41;101564.41;;;16.48;48.33
12213;BME280;6169;44.158;22.788;2022-10-31T06:06:45;101526.22;;;16.24;48.44
12213;BME280;6169;44.158;22.788;2022-10-31T06:11:48;101561.81;;;16.92;47.31
12213;BME280;6169;44.158;22.788;2022-10-31T06:16:50;101565.75;;;16.96;47.30
12213;BME280;6169;44.158;22.788;2022-10-31T06:21:54;101574.75;;;17.13;47.52
12213;BME280;6169;44.158;22.788;2022-10-31T06:26:57;101571.88;;;17.42;47.46
12213;BME280;6169;44.158;22.788;2022-10-31T06:31:59;101572.38;;;17.61;47.53
12213;BME280;6169;44.158;22.788;2022-10-31T06:37:03;101577.22;;;17.76;48.43
12213;BME280;6169;44.158;22.788;2022-10-31T06:42:07;101577.91;;;18.15;46.80
12213;BME280;6169;44.158;22.788;2022-10-31T06:47:09;101581.06;;;18.56;45.40
12213;BME280;6169;44.158;22.788;2022-10-31T06:52:13;101581.13;;;18.98;44.29
12213;BME280;6169;44.158;22.788;2022-10-31T06:57:16;101598.56;;;19.19;43.99
12213;BME280;6169;44.158;22.788;2022-10-31T07:02:18;101603.84;;;19.26;43.52
12213;BME280;6169;44.158;22.788;2022-10-31T07:07:22;101597.06;;;19.49;42.70
12213;BME280;6169;44.158;22.788;2022-10-31T07:12:25;101586.50;;;19.93;41.93
12213;BME280;6169;44.158;22.788;2022-10-31T07:17:27;101589.28;;;20.14;40.62
12213;BME280;6169;44.158;22.788;2022-10-31T07:22:35;101589.84;;;20.21;40.71
12213;BME280;6169;44.158;22.788;2022-10-31T07:27:38;101589.63;;;20.48;40.33
12213;BME280;6169;44.158;22.788;2022-10-31T07:32:41;101584.91;;;20.38;40.21
12213;BME280;6169;44.158;22.788;2022-10-31T07:37:45;101541.06;;;20.32;39.91
12213;BME280;6169;44.158;22.788;2022-10-31T07:42:49;101582.97;;;20.80;39.64
12213;BME280;6169;44.158;22.788;2022-10-31T07:47:53;101560.94;;;20.70;39.27
12213;BME280;6169;44.158;22.788;2022-10-31T07:53:01;101588.56;;;21.65;38.39
12213;BME280;6169;44.158;22.788;2022-10-31T07:58:05;101566.69;;;21.74;37.40
12213;BME280;6169;44.158;22.788;2022-10-31T08:03:09;101572.28;;;21.54;37.78
12213;BME280;6169;44.158;22.788;2022-10-31T08:08:13;101575.06;;;22.08;37.29
12213;BME280;6169;44.158;22.788;2022-10-31T08:13:16;101572.09;;;22.34;36.64
12213;BME280;6169;44.158;22.788;2022-10-31T08:18:19;101582.78;;;22.11;36.56
12213;BME280;6169;44.158;22.788;2022-10-31T08:23:24;101580.13;;;22.70;35.96
12213;BME280;6169;44.158;22.788;2022-10-31T08:28:26;101578.63;;;22.53;35.72
12213;BME280;6169;44.158;22.788;2022-10-31T08:33:29;101561.03;;;22.34;36.18
12213;BME280;6169;44.158;22.788;2022-10-31T08:38:33;101569.84;;;22.99;34.94
12213;BME280;6169;44.158;22.788;2022-10-31T08:43:35;101570.03;;;22.84;35.85
12213;BME280;6169;44.158;22.788;2022-10-31T08:48:38;101568.59;;;22.57;36.05
12213;BME280;6169;44.158;22.788;2022-10-31T08:53:42;101571.84;;;23.23;34.83
12213;BME280;6169;44.158;22.788;2022-10-31T08:58:44;101565.88;;;23.35;34.92
12213;BME280;6169;44.158;22.788;2022-10-31T09:03:46;101568.81;;;23.43;34.18
12213;BME280;6169;44.158;22.788;2022-10-31T09:08:50;101536.31;;;23.49;33.60
12213;BME280;6169;44.158;22.788;2022-10-31T09:13:53;101567.31;;;24.13;33.28
12213;BME280;6169;44.158;22.788;2022-10-31T09:18:55;101561.13;;;23.78;33.86
12213;BME280;6169;44.158;22.788;2022-10-31T09:23:59;101554.41;;;23.84;33.89
12213;BME280;6169;44.158;22.788;2022-10-31T09:29:01;101555.88;;;24.33;33.07
12213;BME280;6169;44.158;22.788;2022-10-31T09:34:04;101559.38;;;24.72;32.54
12213;BME280;6169;44.158;22.788;2022-10-31T09:39:08;101547.81;;;24.83;32.08
12213;BME280;6169;44.158;22.788;2022-10-31T09:44:18;101542.25;;;24.83;32.60
12213;BME280;6169;44.158;22.788;2022-10-31T09:49:36;101544.94;;;25.44;31.26
12213;BME280;6169;44.158;22.788;2022-10-31T09:54:46;101519.25;;;25.61;31.19
12213;BME280;6169;44.158;22.788;2022-10-31T09:59:51;101544.72;;;25.54;30.96
12213;BME280;6169;44.158;22.788;2022-10-31T10:04:57;101527.75;;;25.92;31.09
12213;BME280;6169;44.158;22.788;2022-10-31T10:10:14;101519.47;;;26.01;31.00
12213;BME280;6169;44.158;22.788;2022-10-31T10:15:30;101526.44;;;25.76;30.90
12213;BME280;6169;44.158;22.788;2022-10-31T10:20:42;101531.28;;;26.51;30.10
12213;BME280;6169;44.158;22.788;2022-10-31T10:25:53;101533.06;;;26.02;30.63
12213;BME280;6169;44.158;22.788;2022-10-31T10:31:02;101519.81;;;26.22;30.48
12213;BME280;6169;44.158;22.788;2022-10-31T10:36:13;101516.94;;;26.13;30.58
12213;BME280;6169;44.158;22.788;2022-10-31T10:41:19;101523.91;;;26.47;30.24
12213;BME280;6169;44.158;22.788;2022-10-31T10:46:25;101523.94;;;26.24;30.58
12213;BME280;6169;44.158;22.788;2022-10-31T10:51:52;101519.84;;;26.53;29.87
12213;BME280;6169;44.158;22.788;2022-10-31T10:57:08;101510.19;;;26.59;29.54
12213;BME280;6169;44.158;22.788;2022-10-31T11:02:17;101503.22;;;27.10;28.85
12213;BME280;6169;44.158;22.788;2022-10-31T11:07:20;101499.94;;;27.17;29.09
12213;BME280;6169;44.158;22.788;2022-10-31T11:12:29;101507.00;;;27.14;28.66
12213;BME280;6169;44.158;22.788;2022-10-31T11:17:33;101488.38;;;27.84;27.96
12213;BME280;6169;44.158;22.788;2022-10-31T11:22:36;101486.94;;;27.96;27.55
12213;BME280;6169;44.158;22.788;2022-10-31T11:27:40;101485.06;;;28.26;26.90
12213;BME280;6169;44.158;22.788;2022-10-31T11:32:48;101484.38;;;28.37;27.00
12213;BME280;6169;44.158;22.788;2022-10-31T11:37:54;101471.19;;;27.91;27.27
12213;BME280;6169;44.158;22.788;2022-10-31T11:43:01;101466.88;;;27.76;27.60
12213;BME280;6169;44.158;22.788;2022-10-31T11:48:15;101465.59;;;28.00;27.54
12213;BME280;6169;44.158;22.788;2022-10-31T11:53:20;101470.41;;;28.85;26.36
12213;BME280;6169;44.158;22.788;2022-10-31T11:58:26;101462.50;;;28.57;26.40
12213;BME280;6169;44.158;22.788;2022-10-31T12:03:48;101450.13;;;28.96;25.60
12213;BME280;6169;44.158;22.788;2022-10-31T12:08:53;101446.09;;;28.85;26.14
12213;BME280;6169;44.158;22.788;2022-10-31T12:14:05;101443.63;;;29.13;25.63
12213;BME280;6169;44.158;22.788;2022-10-31T12:19:18;101433.69;;;29.24;25.17
12213;BME280;6169;44.158;22.788;2022-10-31T12:24:40;101427.63;;;29.01;25.57
12213;BME280;6169;44.158;22.788;2022-10-31T12:30:02;101425.59;;;29.74;24.99
12213;BME280;6169;44.158;22.788;2022-10-31T12:35:26;101400.56;;;29.14;25.22
12213;BME280;6169;44.158;22.788;2022-10-31T12:45:57;101410.09;;;29.13;25.56
12213;BME280;6169;44.158;22.788;2022-10-31T12:51:05;101413.97;;;29.00;25.30
12213;BME280;6169;44.158;22.788;2022-10-31T12:56:18;101410.16;;;29.46;25.00
12213;BME280;6169;44.158;22.788;2022-10-31T13:01:29;101408.31;;;29.51;25.78
12213;BME280;6169;44.158;22.788;2022-10-31T13:06:36;101406.75;;;29.62;24.46
12213;BME280;6169;44.158;22.788;2022-10-31T13:11:43;101405.00;;;28.86;24.66
12213;BME280;6169;44.158;22.788;2022-10-31T13:16:49;101406.50;;;29.13;24.68
12213;BME280;6169;44.158;22.788;2022-10-31T13:21:57;101409.59;;;29.74;23.89
12213;BME280;6169;44.158;22.788;2022-10-31T13:27:03;101384.91;;;28.92;23.94
12213;BME280;6169;44.158;22.788;2022-10-31T13:32:12;101411.47;;;29.07;23.57
12213;BME280;6169;44.158;22.788;2022-10-31T13:37:19;101414.22;;;29.37;23.45
12213;BME280;6169;44.158;22.788;2022-10-31T13:42:41;101408.53;;;29.24;23.80
12213;BME280;6169;44.158;22.788;2022-10-31T13:48:00;101414.69;;;28.88;23.47
12213;BME280;6169;44.158;22.788;2022-10-31T13:53:11;101422.59;;;28.56;23.63
12213;BME280;6169;44.158;22.788;2022-10-31T13:58:25;101414.78;;;28.24;24.21
12213;BME280;6169;44.158;22.788;2022-10-31T14:03:30;101416.63;;;28.67;24.05
12213;BME280;6169;44.158;22.788;2022-10-31T14:08:37;101419.22;;;28.33;24.21
12213;BME280;6169;44.158;22.788;2022-10-31T14:13:44;101419.16;;;28.51;24.22
12213;BME280;6169;44.158;22.788;2022-10-31T14:18:51;101416.03;;;27.97;24.71
12213;BME280;6169;44.158;22.788;2022-10-31T14:23:59;101421.31;;;27.55;24.86
12213;BME280;6169;44.158;22.788;2022-10-31T14:29:19;101414.94;;;27.37;24.96
12213;BME280;6169;44.158;22.788;2022-10-31T14:34:27;101420.28;;;27.16;25.87
12213;BME280;6169;44.158;22.788;2022-10-31T14:39:34;101397.97;;;26.98;25.98
12213;BME280;6169;44.158;22.788;2022-10-31T14:44:52;101418.81;;;27.01;26.26
12213;BME280;6169;44.158;22.788;2022-10-31T14:50:14;101425.53;;;27.09;26.30
12213;BME280;6169;44.158;22.788;2022-10-31T14:55:23;101415.19;;;26.92;26.21
12213;BME280;6169;44.158;22.788;2022-10-31T15:00:27;101414.69;;;26.50;26.99
12213;BME280;6169;44.158;22.788;2022-10-31T15:05:31;101415.88;;;26.26;27.37
12213;BME280;6169;44.158;22.788;2022-10-31T15:10:37;101430.09;;;25.93;27.91
12213;BME280;6169;44.158;22.788;2022-10-31T15:15:40;101425.47;;;25.66;28.27
12213;BME280;6169;44.158;22.788;2022-10-31T15:20:45;101416.84;;;25.32;29.01
12213;BME280;6169;44.158;22.788;2022-10-31T15:25:48;101422.34;;;25.09;29.79
12213;BME280;6169;44.158;22.788;2022-10-31T15:30:52;101422.53;;;24.71;30.16
12213;BME280;6169;44.158;22.788;2022-10-31T15:35:58;101371.19;;;24.00;30.94
12213;BME280;6169;44.158;22.788;2022-10-31T15:41:02;101395.00;;;23.68;31.48
12213;BME280;6169;44.158;22.788;2022-10-31T15:46:07;101430.03;;;23.97;31.27
12213;BME280;6169;44.158;22.788;2022-10-31T15:51:12;101427.22;;;23.64;31.69
12213;BME280;6169;44.158;22.788;2022-10-31T15:56:21;101429.22;;;23.39;31.61
12213;BME280;6169;44.158;22.788;2022-10-31T16:01:25;101443.41;;;23.57;31.87
12213;BME280;6169;44.158;22.788;2022-10-31T16:06:30;101428.72;;;23.37;31.98
12213;BME280;6169;44.158;22.788;2022-10-31T16:11:34;101444.88;;;23.30;31.93
12213;BME280;6169;44.158;22.788;2022-10-31T16:16:41;101450.47;;;23.06;32.37
12213;BME280;6169;44.158;22.788;2022-10-31T16:21:48;101462.56;;;23.10;32.26
12213;BME280;6169;44.158;22.788;2022-10-31T16:26:52;101463.31;;;22.73;33.08
12213;BME280;6169;44.158;22.788;2022-10-31T16:31:55;101468.59;;;22.69;33.20
12213;BME280;6169;44.158;22.788;2022-10-31T16:37:01;101475.50;;;22.43;33.63
12213;BME280;6169;44.158;22.788;2022-10-31T16:42:04;101480.28;;;22.32;33.23
12213;BME280;6169;44.158;22.788;2022-10-31T16:47:13;101484.25;;;21.91;33.70
12213;BME280;6169;44.158;22.788;2022-10-31T16:52:17;101483.88;;;22.03;33.68
12213;BME280;6169;44.158;22.788;2022-10-31T16:57:23;101504.00;;;22.09;33.31
12213;BME280;6169;44.158;22.788;2022-10-31T17:02:27;101499.31;;;21.65;33.95
12213;BME280;6169;44.158;22.788;2022-10-31T17:07:31;101500.84;;;21.81;33.80
12213;BME280;6169;44.158;22.788;2022-10-31T17:12:34;101509.81;;;21.68;33.87
12213;BME280;6169;44.158;22.788;2022-10-31T17:17:37;101507.19;;;21.92;33.46
12213;BME280;6169;44.158;22.788;2022-10-31T17:22:41;101503.38;;;21.78;33.69
12213;BME280;6169;44.158;22.788;2022-10-31T17:27:44;101505.41;;;22.06;33.10
12213;BME280;6169;44.158;22.788;2022-10-31T17:32:48;101516.50;;;22.01;33.29
12213;BME280;6169;44.158;22.788;2022-10-31T17:37:52;101510.69;;;22.03;33.16
12213;BME280;6169;44.158;22.788;2022-10-31T17:42:56;101481.47;;;21.47;33.61
12213;BME280;6169;44.158;22.788;2022-10-31T17:47:58;101518.63;;;21.70;33.43
12213;BME280;6169;44.158;22.788;2022-10-31T17:53:02;101519.41;;;21.76;33.24
12213;BME280;6169;44.158;22.788;2022-10-31T17:58:05;101521.41;;;21.65;33.92
12213;BME280;6169;44.158;22.788;2022-10-31T18:03:07;101523.25;;;21.80;33.58
12213;BME280;6169;44.158;22.788;2022-10-31T18:08:11;101524.44;;;21.68;33.65
12213;BME280;6169;44.158;22.788;2022-10-31T18:13:14;101531.81;;;21.78;33.38
12213;BME280;6169;44.158;22.788;2022-10-31T18:18:16;101527.34;;;21.43;33.83
12213;BME280;6169;44.158;22.788;2022-10-31T18:23:20;101519.44;;;21.11;34.34
12213;BME280;6169;44.158;22.788;2022-10-31T18:28:23;101535.47;;;21.03;34.59
12213;BME280;6169;44.158;22.788;2022-10-31T18:33:25;101530.25;;;20.97;34.59
12213;BME280;6169;44.158;22.788;2022-10-31T18:38:30;101525.59;;;20.77;34.67
12213;BME280;6169;44.158;22.788;2022-10-31T18:43:32;101534.44;;;20.79;34.64
12213;BME280;6169;44.158;22.788;2022-10-31T18:48:35;101534.75;;;20.52;35.23
12213;BME280;6169;44.158;22.788;2022-10-31T18:53:39;101544.94;;;20.46;35.33
12213;BME280;6169;44.158;22.788;2022-10-31T18:58:42;101539.13;;;20.32;35.74
12213;BME280;6169;44.158;22.788;2022-10-31T19:03:44;101537.75;;;20.30;36.00
12213;BME280;6169;44.158;22.788;2022-10-31T19:08:48;101537.22;;;20.23;35.94
12213;BME280;6169;44.158;22.788;2022-10-31T19:13:50;101546.84;;;20.10;36.22
12213;BME280;6169;44.158;22.788;2022-10-31T19:18:53;101531.69;;;20.02;35.99
12213;BME280;6169;44.158;22.788;2022-10-31T19:23:59;101550.56;;;19.68;36.82
12213;BME280;6169;44.158;22.788;2022-10-31T19:29:01;101555.47;;;19.50;37.29
12213;BME280;6169;44.158;22.788;2022-10-31T19:34:04;101553.84;;;19.49;37.50
12213;BME280;6169;44.158;22.788;2022-10-31T19:39:09;101553.84;;;19.49;37.56
12213;BME280;6169;44.158;22.788;2022-10-31T19:44:11;101551.88;;;19.40;37.67
12213;BME280;6169;44.158;22.788;2022-10-31T19:49:14;101561.59;;;19.63;37.12
12213;BME280;6169;44.158;22.788;2022-10-31T19:54:18;101571.78;;;19.57;36.99
12213;BME280;6169;44.158;22.788;2022-10-31T19:59:20;101575.06;;;19.54;37.09
12213;BME280;6169;44.158;22.788;2022-10-31T20:04:23;101568.50;;;19.08;38.02
12213;BME280;6169;44.158;22.788;2022-10-31T20:09:27;101575.38;;;19.05;37.97
12213;BME280;6169;44.158;22.788;2022-10-31T20:14:29;101581.44;;;18.75;38.70
12213;BME280;6169;44.158;22.788;2022-10-31T20:19:32;101592.09;;;18.61;38.65
12213;BME280;6169;44.158;22.788;2022-10-31T20:24:36;101593.34;;;18.48;39.03
12213;BME280;6169;44.158;22.788;2022-10-31T20:29:38;101583.66;;;18.41;39.05
12213;BME280;6169;44.158;22.788;2022-10-31T20:34:41;101586.69;;;18.39;39.07
12213;BME280;6169;44.158;22.788;2022-10-31T20:39:45;101589.03;;;18.25;39.13
12213;BME280;6169;44.158;22.788;2022-10-31T20:44:47;101584.41;;;18.31;39.05
12213;BME280;6169;44.158;22.788;2022-10-31T20:49:49;101591.59;;;18.10;39.36
12213;BME280;6169;44.158;22.788;2022-10-31T20:54:53;101594.59;;;18.08;39.36
12213;BME280;6169;44.158;22.788;2022-10-31T20:59:56;101591.97;;;17.69;40.27
12213;BME280;6169;44.158;22.788;2022-10-31T21:04:58;101586.88;;;17.56;41.11
12213;BME280;6169;44.158;22.788;2022-10-31T21:10:03;101582.53;;;17.60;40.81
12213;BME280;6169;44.158;22.788;2022-10-31T21:15:14;101585.16;;;17.72;40.63
12213;BME280;6169;44.158;22.788;2022-10-31T21:20:16;101542.19;;;17.39;40.72
12213;BME280;6169;44.158;22.788;2022-10-31T21:25:20;101586.19;;;17.44;41.16
12213;BME280;6169;44.158;22.788;2022-10-31T21:30:23;101591.28;;;17.57;41.23
12213;BME280;6169;44.158;22.788;2022-10-31T21:35:25;101585.22;;;17.55;40.69
12213;BME280;6169;44.158;22.788;2022-10-31T21:40:29;101581.28;;;17.46;41.08
12213;BME280;6169;44.158;22.788;2022-10-31T21:45:32;101581.59;;;17.49;41.35
12213;BME280;6169;44.158;22.788;2022-10-31T21:50:34;101581.59;;;17.49;41.00
12213;BME280;6169;44.158;22.788;2022-10-31T21:55:38;101582.84;;;17.42;41.52
12213;BME280;6169;44.158;22.788;2022-10-31T22:00:41;101581.66;;;17.55;41.24
12213;BME280;6169;44.158;22.788;2022-10-31T22:05:43;101585.09;;;17.28;41.58
12213;BME280;6169;44.158;22.788;2022-10-31T22:10:47;101581.72;;;17.38;41.38
12213;BME280;6169;44.158;22.788;2022-10-31T22:15:50;101588.31;;;17.03;41.89
12213;BME280;6169;44.158;22.788;2022-10-31T22:20:52;101598.91;;;16.60;43.07
12213;BME280;6169;44.158;22.788;2022-10-31T22:25:56;101595.28;;;16.26;44.28
12213;BME280;6169;44.158;22.788;2022-10-31T22:31:03;101606.06;;;16.78;43.49
12213;BME280;6169;44.158;22.788;2022-10-31T22:36:08;101608.72;;;16.73;44.14
12213;BME280;6169;44.158;22.788;2022-10-31T22:41:13;101617.19;;;16.89;43.92
12213;BME280;6169;44.158;22.788;2022-10-31T22:46:17;101622.25;;;16.97;44.59
12213;BME280;6169;44.158;22.788;2022-10-31T22:51:22;101623.25;;;16.57;44.26
12213;BME280;6169;44.158;22.788;2022-10-31T22:56:27;101621.22;;;16.52;44.10
12213;BME280;6169;44.158;22.788;2022-10-31T23:01:31;101624.34;;;16.56;43.43
12213;BME280;6169;44.158;22.788;2022-10-31T23:06:34;101614.38;;;16.67;43.77
12213;BME280;6169;44.158;22.788;2022-10-31T23:11:38;101613.59;;;16.54;45.05
12213;BME280;6169;44.158;22.788;2022-10-31T23:16:44;101623.78;;;16.42;45.11
12213;BME280;6169;44.158;22.788;2022-10-31T23:21:48;101621.84;;;16.26;45.96
12213;BME280;6169;44.158;22.788;2022-10-31T23:27:03;101623.06;;;16.18;46.27
12213;BME280;6169;44.158;22.788;2022-10-31T23:32:16;101614.13;;;16.23;46.81
12213;BME280;6169;44.158;22.788;2022-10-31T23:37:20;101612.63;;;15.86;48.78
12213;BME280;6169;44.158;22.788;2022-10-31T23:42:26;101611.25;;;16.01;47.78
12213;BME280;6169;44.158;22.788;2022-10-31T23:47:28;101616.81;;;15.77;48.90
12213;BME280;6169;44.158;22.788;2022-10-31T23:52:31;101619.41;;;15.84;48.95
12213;BME280;6169;44.158;22.788;2022-10-31T23:57:35;101620.94;;;15.91;48.96
